createdAt,value
2022-07-25T00:00:19.758Z,14.82
2022-07-25T00:02:21.834Z,9.55
2022-07-25T00:04:23.745Z,12.20
2022-07-25T00:06:25.345Z,16.25
2022-07-25T00:08:26.880Z,14.70
2022-07-25T00:10:28.460Z,11.88
2022-07-25T00:12:30.009Z,15.70
2022-07-25T00:14:31.555Z,14.85
2022-07-25T00:16:33.326Z,16.05
2022-07-25T00:18:35.169Z,15.63
2022-07-25T00:20:36.690Z,12.38
2022-07-25T00:22:38.256Z,17.63
2022-07-25T00:24:39.845Z,13.57
2022-07-25T00:26:43.168Z,13.05
2022-07-25T00:28:45.005Z,12.32
2022-07-25T00:30:46.656Z,14.52
2022-07-25T00:32:48.276Z,17.13
2022-07-25T00:34:49.876Z,16.83
2022-07-25T00:36:51.511Z,11.63
2022-07-25T00:38:53.269Z,19.92
2022-07-25T00:40:55.702Z,12.10
2022-07-25T00:42:57.395Z,17.92
2022-07-25T00:45:00.097Z,15.43
2022-07-25T00:47:01.719Z,20.90
2022-07-25T00:49:03.399Z,16.95
2022-07-25T00:51:05.156Z,13.75
2022-07-25T00:53:06.713Z,11.45
2022-07-25T00:55:08.415Z,14.63
2022-07-25T00:57:10.037Z,14.73
2022-07-25T00:59:11.585Z,15.63
2022-07-25T01:01:13.301Z,14.30
2022-07-25T01:03:15.478Z,10.93
2022-07-25T01:05:17.178Z,13.75
2022-07-25T01:07:18.728Z,15.55
2022-07-25T01:09:20.547Z,13.20
2022-07-25T01:11:22.520Z,10.10
2022-07-25T01:13:24.139Z,17.92
2022-07-25T01:15:25.858Z,18.75
2022-07-25T01:17:27.391Z,25.05
2022-07-25T01:19:28.964Z,18.75
2022-07-25T01:21:30.665Z,20.77
2022-07-25T01:23:32.240Z,17.38
2022-07-25T01:25:35.298Z,17.17
2022-07-25T01:27:39.096Z,17.75
2022-07-25T01:29:42.306Z,11.70
2022-07-25T01:31:45.999Z,17.45
2022-07-25T01:33:49.166Z,21.40
2022-07-25T01:35:52.733Z,13.25
2022-07-25T01:37:56.074Z,21.98
2022-07-25T01:39:59.789Z,20.08
2022-07-25T01:42:03.237Z,15.77
2022-07-25T01:44:07.564Z,24.30
2022-07-25T01:46:11.133Z,16.45
2022-07-25T01:48:13.273Z,9.65
2022-07-25T01:50:14.819Z,11.02
2022-07-25T01:52:16.605Z,26.52
2022-07-25T01:54:18.325Z,18.83
2022-07-25T01:56:22.522Z,25.25
2022-07-25T01:58:24.116Z,23.48
2022-07-25T02:00:26.959Z,17.00
2022-07-25T02:02:28.581Z,15.70
2022-07-25T02:04:30.189Z,12.60
2022-07-25T02:06:31.772Z,19.85
2022-07-25T02:08:33.466Z,20.23
2022-07-25T02:10:35.034Z,22.00
2022-07-25T02:12:36.771Z,23.52
2022-07-25T02:14:38.527Z,20.08
2022-07-25T02:16:40.134Z,13.13
2022-07-25T02:18:41.723Z,19.48
2022-07-25T02:20:43.297Z,24.00
2022-07-25T02:22:44.833Z,22.05
2022-07-25T02:24:46.488Z,16.90
2022-07-25T02:26:48.117Z,17.13
2022-07-25T02:29:16.242Z,17.75
2022-07-25T02:31:17.902Z,16.55
2022-07-25T02:33:19.787Z,16.50
2022-07-25T02:35:21.703Z,16.52
2022-07-25T02:37:23.272Z,16.10
2022-07-25T02:39:25.433Z,16.40
2022-07-25T02:41:27.034Z,16.50
2022-07-25T02:43:28.736Z,29.15
2022-07-25T02:45:30.378Z,15.85
2022-07-25T02:47:32.331Z,19.00
2022-07-25T02:49:33.896Z,12.55
2022-07-25T02:51:35.509Z,18.65
2022-07-25T02:54:00.824Z,20.15
2022-07-25T02:55:58.844Z,19.00
2022-07-25T02:58:00.360Z,23.17
2022-07-25T03:00:01.970Z,20.90
2022-07-25T03:02:03.493Z,17.77
2022-07-25T03:04:05.521Z,16.05
2022-07-25T03:06:07.522Z,18.23
2022-07-25T03:08:09.025Z,23.67
2022-07-25T03:10:11.675Z,19.30
2022-07-25T03:12:13.271Z,12.68
2022-07-25T03:14:14.930Z,19.02
2022-07-25T03:16:16.515Z,21.75
2022-07-25T03:18:18.063Z,13.73
2022-07-25T03:20:19.592Z,23.00
2022-07-25T03:22:21.348Z,25.35
2022-07-25T03:24:22.850Z,20.48
2022-07-25T03:26:24.631Z,22.60
2022-07-25T03:28:26.855Z,18.92
2022-07-25T03:30:28.378Z,20.50
2022-07-25T03:32:29.874Z,15.50
2022-07-25T03:34:31.415Z,26.55
2022-07-25T03:36:33.225Z,17.73
2022-07-25T03:38:34.765Z,24.48
2022-07-25T03:40:36.608Z,20.48
2022-07-25T03:42:38.277Z,22.70
2022-07-25T03:44:39.830Z,20.33
2022-07-25T03:46:41.439Z,12.18
2022-07-25T03:48:43.111Z,21.73
2022-07-25T03:50:44.750Z,23.17
2022-07-25T03:52:46.414Z,21.02
2022-07-25T03:54:47.970Z,13.90
2022-07-25T03:56:50.324Z,13.80
2022-07-25T03:58:51.844Z,19.48
2022-07-25T04:00:53.423Z,19.70
2022-07-25T04:02:55.438Z,29.95
2022-07-25T04:04:56.977Z,21.67
2022-07-25T04:06:58.473Z,24.75
2022-07-25T04:09:00.120Z,19.83
2022-07-25T04:11:01.909Z,22.30
2022-07-25T04:13:03.604Z,16.33
2022-07-25T04:15:05.463Z,21.40
2022-07-25T04:17:07.064Z,17.40
2022-07-25T04:19:08.886Z,16.75
2022-07-25T04:21:10.546Z,16.60
2022-07-25T04:23:12.372Z,16.95
2022-07-25T04:25:14.326Z,25.88
2022-07-25T04:27:16.785Z,14.38
2022-07-25T04:29:21.502Z,23.10
2022-07-25T04:31:31.006Z,15.80
2022-07-25T04:33:44.441Z,18.92
2022-07-25T04:35:54.081Z,18.15
2022-07-25T04:38:01.959Z,14.63
2022-07-25T04:40:15.034Z,18.15
2022-07-25T04:42:26.138Z,17.05
2022-07-25T04:44:37.885Z,22.55
2022-07-25T04:46:47.742Z,18.40
2022-07-25T04:48:56.976Z,16.67
2022-07-25T04:51:07.807Z,16.63
2022-07-25T04:53:09.736Z,10.57
2022-07-25T04:55:11.541Z,17.02
2022-07-25T04:57:13.091Z,20.98
2022-07-25T04:59:14.667Z,17.70
2022-07-25T05:01:16.794Z,16.95
2022-07-25T05:03:18.601Z,17.48
2022-07-25T05:05:21.451Z,12.50
2022-07-25T05:07:23.503Z,12.02
2022-07-25T05:09:25.080Z,15.73
2022-07-25T05:11:26.616Z,10.48
2022-07-25T05:13:28.419Z,14.40
2022-07-25T05:15:29.979Z,15.23
2022-07-25T05:17:31.627Z,11.65
2022-07-25T05:19:33.247Z,17.40
2022-07-25T05:21:34.763Z,16.63
2022-07-25T05:23:36.413Z,14.13
2022-07-25T05:25:38.089Z,13.23
2022-07-25T05:27:41.663Z,19.02
2022-07-25T05:29:43.231Z,15.93
2022-07-25T05:31:44.953Z,15.60
2022-07-25T05:33:46.588Z,14.23
2022-07-25T05:35:48.127Z,14.35
2022-07-25T05:37:49.630Z,16.00
2022-07-25T05:39:51.087Z,14.80
2022-07-25T05:41:52.671Z,11.95
2022-07-25T05:43:54.232Z,12.27
2022-07-25T05:46:00.496Z,9.25
2022-07-25T05:48:02.214Z,10.48
2022-07-25T05:50:03.907Z,7.20
2022-07-25T05:52:08.255Z,10.50
2022-07-25T05:54:12.592Z,8.55
2022-07-25T05:56:14.133Z,10.13
2022-07-25T05:58:15.656Z,13.75
2022-07-25T06:00:17.245Z,7.57
2022-07-25T06:02:18.918Z,12.45
2022-07-25T06:04:25.406Z,11.52
2022-07-25T06:06:30.695Z,7.28
2022-07-25T06:08:33.958Z,8.73
2022-07-25T06:10:35.796Z,8.43
2022-07-25T06:12:39.025Z,5.35
2022-07-25T06:14:42.078Z,7.90
2022-07-25T06:16:44.558Z,8.20
2022-07-25T06:18:46.129Z,9.25
2022-07-25T06:20:48.782Z,5.63
2022-07-25T06:22:50.484Z,11.55
2022-07-25T06:24:52.188Z,6.68
2022-07-25T06:26:53.700Z,12.35
2022-07-25T06:28:55.496Z,8.15
2022-07-25T06:30:57.005Z,5.38
2022-07-25T06:32:58.558Z,7.55
2022-07-25T06:35:00.173Z,7.95
2022-07-25T06:37:01.689Z,5.95
2022-07-25T06:39:04.038Z,3.92
2022-07-25T06:41:05.681Z,4.93
2022-07-25T06:43:09.039Z,5.10
2022-07-25T06:45:11.078Z,3.20
2022-07-25T06:47:13.014Z,4.45
2022-07-25T06:49:14.712Z,7.50
2022-07-25T06:51:16.330Z,4.00
2022-07-25T06:53:17.973Z,3.28
2022-07-25T06:55:19.478Z,3.17
2022-07-25T06:57:21.001Z,1.95
2022-07-25T06:59:22.632Z,9.00
2022-07-25T07:01:24.183Z,3.65
2022-07-25T07:03:25.953Z,2.10
2022-07-25T07:05:29.632Z,4.03
2022-07-25T07:07:31.382Z,2.47
2022-07-25T07:09:33.125Z,3.70
2022-07-25T07:11:34.643Z,1.90
2022-07-25T07:13:36.276Z,4.55
2022-07-25T07:15:38.186Z,5.95
2022-07-25T07:17:39.705Z,1.57
2022-07-25T07:19:46.032Z,3.60
2022-07-25T07:21:49.975Z,1.92
2022-07-25T07:23:53.492Z,1.38
2022-07-25T07:25:55.412Z,2.42
2022-07-25T07:27:56.991Z,5.82
2022-07-25T07:29:58.508Z,2.00
2022-07-25T07:32:00.215Z,8.10
2022-07-25T07:34:03.361Z,3.28
2022-07-25T07:36:10.780Z,4.80
2022-07-25T07:38:17.690Z,5.22
2022-07-25T07:40:29.762Z,1.80
2022-07-25T07:42:43.980Z,2.85
2022-07-25T07:44:52.233Z,2.35
2022-07-25T07:47:02.381Z,4.32
2022-07-25T07:49:10.463Z,2.60
2022-07-25T07:51:19.534Z,2.65
2022-07-25T07:53:23.485Z,5.55
2022-07-25T07:55:49.705Z,7.82
2022-07-25T07:57:54.864Z,4.13
2022-07-25T07:59:57.392Z,6.90
2022-07-25T08:01:59.039Z,6.13
2022-07-25T08:04:00.753Z,4.30
2022-07-25T08:06:02.328Z,4.15
2022-07-25T08:08:04.578Z,5.75
2022-07-25T08:10:07.150Z,3.05
2022-07-25T08:12:08.825Z,5.38
2022-07-25T08:14:10.849Z,2.30
2022-07-25T08:16:13.795Z,5.20
2022-07-25T08:18:17.536Z,3.40
2022-07-25T08:20:37.527Z,3.17
2022-07-25T08:22:42.423Z,3.85
2022-07-25T08:24:46.704Z,1.65
2022-07-25T08:26:48.775Z,3.15
2022-07-25T08:29:04.949Z,4.43
2022-07-25T08:31:11.969Z,2.88
2022-07-25T08:33:16.111Z,2.60
2022-07-25T08:35:18.901Z,5.80
2022-07-25T08:37:20.590Z,5.63
2022-07-25T08:39:22.242Z,2.20
2022-07-25T08:41:24.808Z,1.27
2022-07-25T08:43:26.559Z,4.67
2022-07-25T08:45:28.813Z,1.92
2022-07-25T08:47:30.639Z,3.00
2022-07-25T08:49:32.127Z,2.63
2022-07-25T08:51:33.976Z,2.05
2022-07-25T08:53:36.290Z,1.67
2022-07-25T08:55:38.075Z,2.30
2022-07-25T08:57:43.649Z,1.42
2022-07-25T08:59:45.241Z,3.33
2022-07-25T09:01:46.763Z,5.10
2022-07-25T09:03:48.291Z,5.20
2022-07-25T09:05:50.194Z,0.98
2022-07-25T09:07:52.346Z,3.70
2022-07-25T09:09:53.855Z,3.85
2022-07-25T09:11:55.409Z,2.95
2022-07-25T09:14:01.559Z,4.22
2022-07-25T09:16:05.615Z,9.43
2022-07-25T09:18:10.632Z,1.15
2022-07-25T09:20:18.079Z,10.13
2022-07-25T09:22:20.083Z,1.60
2022-07-25T09:24:22.720Z,4.60
2022-07-25T09:26:24.171Z,3.92
2022-07-25T09:28:25.653Z,6.13
2022-07-25T09:30:27.108Z,2.65
2022-07-25T09:32:29.224Z,4.30
2022-07-25T09:34:34.788Z,4.47
2022-07-25T09:36:39.714Z,2.55
2022-07-25T09:38:41.344Z,4.63
2022-07-25T09:40:53.714Z,2.45
2022-07-25T09:42:55.220Z,4.60
2022-07-25T09:45:08.106Z,5.10
2022-07-25T09:47:10.615Z,3.72
2022-07-25T09:49:14.701Z,5.22
2022-07-25T09:51:16.413Z,1.65
2022-07-25T09:53:18.987Z,5.57
2022-07-25T09:55:21.068Z,1.35
2022-07-25T09:57:24.149Z,3.40
2022-07-25T09:59:25.681Z,5.40
2022-07-25T10:01:38.169Z,6.32
2022-07-25T10:03:45.486Z,3.22
2022-07-25T10:05:53.317Z,5.22
2022-07-25T10:07:55.303Z,6.63
2022-07-25T10:09:57.075Z,4.43
2022-07-25T10:12:05.973Z,4.50
2022-07-25T10:14:12.069Z,2.30
2022-07-25T10:16:15.147Z,5.40
2022-07-25T10:18:18.599Z,1.27
2022-07-25T10:22:39.833Z,3.80
2022-07-25T10:24:46.813Z,3.75
2022-07-25T10:26:52.464Z,2.25
2022-07-25T10:28:55.857Z,6.13
2022-07-25T10:30:58.677Z,4.70
2022-07-25T10:33:01.944Z,3.55
2022-07-25T10:35:13.082Z,2.28
2022-07-25T10:37:22.930Z,2.17
2022-07-25T10:39:40.028Z,1.90
2022-07-25T10:41:53.941Z,4.03
2022-07-25T10:43:57.799Z,2.08
2022-07-25T10:46:00.466Z,2.92
2022-07-25T10:48:09.738Z,3.58
2022-07-25T10:50:29.835Z,2.97
2022-07-25T10:52:47.148Z,3.92
2022-07-25T10:54:54.110Z,5.13
2022-07-25T10:57:02.862Z,3.50
2022-07-25T10:59:06.907Z,4.57
2022-07-25T11:01:10.728Z,2.20
2022-07-25T11:03:18.128Z,3.97
2022-07-25T11:05:20.700Z,2.03
2022-07-25T11:07:22.527Z,5.00
2022-07-25T11:09:27.989Z,2.72
2022-07-25T11:11:40.931Z,1.27
2022-07-25T11:13:42.759Z,2.88
2022-07-25T11:15:44.550Z,1.60
2022-07-25T11:17:52.693Z,5.03
2022-07-25T11:19:54.136Z,2.70
2022-07-25T11:21:57.442Z,3.83
2022-07-25T11:23:58.992Z,1.17
2022-07-25T11:26:07.499Z,1.75
2022-07-25T11:28:09.146Z,2.00
2022-07-25T11:30:14.983Z,1.20
2022-07-25T11:32:16.919Z,4.45
2022-07-25T11:34:19.533Z,0.70
2022-07-25T11:36:21.285Z,1.33
2022-07-25T11:38:23.198Z,1.08
2022-07-25T11:40:25.968Z,1.23
2022-07-25T11:42:28.724Z,3.03
2022-07-25T11:44:33.211Z,0.65
2022-07-25T11:46:41.977Z,1.13
2022-07-25T11:48:43.605Z,1.38
2022-07-25T11:50:45.753Z,0.98
2022-07-25T11:52:47.379Z,1.58
2022-07-25T11:54:56.451Z,0.80
2022-07-25T11:56:58.064Z,2.97
2022-07-25T11:59:00.763Z,1.92
2022-07-25T12:01:10.807Z,1.52
2022-07-25T12:03:19.154Z,0.73
2022-07-25T12:05:22.210Z,1.05
2022-07-25T12:07:34.961Z,2.42
2022-07-25T12:09:36.756Z,2.30
2022-07-25T12:11:38.287Z,1.08
2022-07-25T12:13:40.052Z,2.30
2022-07-25T12:15:41.779Z,0.82
2022-07-25T12:17:44.011Z,0.43
2022-07-25T12:19:47.012Z,2.70
2022-07-25T12:21:48.546Z,1.38
2022-07-25T12:23:50.018Z,1.05
2022-07-25T12:25:52.096Z,1.00
2022-07-25T12:27:53.701Z,1.38
2022-07-25T12:29:55.393Z,3.10
2022-07-25T12:31:56.947Z,1.40
2022-07-25T12:33:59.295Z,1.23
2022-07-25T12:36:05.257Z,3.67
2022-07-25T12:38:11.064Z,1.92
2022-07-25T12:40:13.587Z,0.57
2022-07-25T12:42:15.042Z,1.93
2022-07-25T12:44:16.524Z,4.95
2022-07-25T12:46:18.098Z,1.52
2022-07-25T12:48:19.627Z,1.75
2022-07-25T12:50:21.257Z,1.13
2022-07-25T12:52:22.769Z,1.40
2022-07-25T12:54:24.356Z,1.10
2022-07-25T12:56:25.844Z,1.08
2022-07-25T12:58:27.731Z,1.17
2022-07-25T13:00:29.225Z,1.67
2022-07-25T13:02:30.827Z,2.10
2022-07-25T13:04:32.410Z,3.15
2022-07-25T13:06:38.515Z,2.80
2022-07-25T13:08:40.376Z,3.65
2022-07-25T13:10:41.896Z,3.35
2022-07-25T13:12:43.439Z,1.73
2022-07-25T13:14:45.147Z,2.85
2022-07-25T13:16:47.531Z,1.13
2022-07-25T13:18:49.568Z,1.15
2022-07-25T13:20:51.155Z,2.22
2022-07-25T13:22:52.630Z,2.75
2022-07-25T13:24:54.359Z,2.85
2022-07-25T13:26:55.881Z,1.63
2022-07-25T13:28:59.931Z,1.50
2022-07-25T13:31:01.935Z,1.05
2022-07-25T13:33:03.703Z,1.80
2022-07-25T13:35:05.804Z,3.75
2022-07-25T13:37:07.455Z,5.93
2022-07-25T13:39:09.579Z,1.85
2022-07-25T13:41:12.064Z,0.73
2022-07-25T13:43:14.048Z,1.48
2022-07-25T13:45:16.037Z,3.13
2022-07-25T13:47:23.705Z,2.00
2022-07-25T13:49:29.820Z,2.85
2022-07-25T13:53:58.413Z,1.98
2022-07-25T13:56:01.042Z,1.10
2022-07-25T13:58:04.408Z,2.97
2022-07-25T14:02:09.668Z,2.47
2022-07-25T14:04:14.060Z,3.73
2022-07-25T14:06:17.272Z,0.57
2022-07-25T14:08:24.083Z,4.85
2022-07-25T14:10:27.471Z,1.20
2022-07-25T14:12:28.936Z,3.75
2022-07-25T14:14:30.681Z,0.95
2022-07-25T14:16:33.706Z,2.42
2022-07-25T14:18:35.404Z,2.55
2022-07-25T14:20:37.167Z,3.78
2022-07-25T14:22:39.667Z,3.50
2022-07-25T14:24:41.265Z,1.63
2022-07-25T14:26:42.775Z,3.00
2022-07-25T14:28:44.246Z,1.55
2022-07-25T14:30:45.750Z,3.78
2022-07-25T14:32:47.296Z,2.55
2022-07-25T14:34:48.898Z,3.78
2022-07-25T14:36:50.455Z,2.53
2022-07-25T14:38:51.998Z,1.35
2022-07-25T14:40:54.161Z,1.40
2022-07-25T14:42:55.640Z,3.25
2022-07-25T14:44:57.155Z,2.33
2022-07-25T14:46:59.145Z,7.28
2022-07-25T14:49:00.829Z,0.90
2022-07-25T14:51:02.392Z,2.92
2022-07-25T14:53:04.029Z,3.60
2022-07-25T14:55:06.072Z,4.15
2022-07-25T14:57:08.519Z,2.25
2022-07-25T14:59:10.550Z,1.20
2022-07-25T15:01:12.427Z,1.48
2022-07-25T15:03:15.403Z,3.65
2022-07-25T15:05:16.962Z,1.70
2022-07-25T15:07:18.616Z,1.98
2022-07-25T15:09:21.029Z,1.45
2022-07-25T15:11:22.923Z,2.08
2022-07-25T15:13:32.527Z,3.25
2022-07-25T15:15:34.361Z,1.17
2022-07-25T15:17:35.916Z,2.92
2022-07-25T15:19:37.422Z,1.38
2022-07-25T15:21:38.976Z,2.92
2022-07-25T15:23:40.524Z,1.50
2022-07-25T15:28:03.620Z,3.08
2022-07-25T15:30:06.054Z,2.22
2022-07-25T15:32:09.439Z,1.70
2022-07-25T15:34:10.903Z,0.60
2022-07-25T15:36:12.514Z,1.48
2022-07-25T15:38:15.814Z,0.65
2022-07-25T15:40:17.467Z,1.45
2022-07-25T15:42:19.013Z,0.52
2022-07-25T15:44:20.887Z,1.20
2022-07-25T15:46:22.544Z,1.85
2022-07-25T15:48:25.064Z,0.40
2022-07-25T15:50:26.727Z,2.28
2022-07-25T15:52:28.513Z,1.63
2022-07-25T15:54:30.063Z,3.15
2022-07-25T15:56:31.776Z,2.45
2022-07-25T15:58:33.309Z,0.63
2022-07-25T16:00:35.048Z,5.20
2022-07-25T16:02:36.872Z,2.33
2022-07-25T16:04:41.416Z,1.40
2022-07-25T16:06:43.000Z,0.75
2022-07-25T16:08:44.504Z,3.40
2022-07-25T16:10:46.219Z,0.30
2022-07-25T16:12:47.751Z,0.22
2022-07-25T16:14:50.195Z,2.75
2022-07-25T16:16:51.695Z,1.10
2022-07-25T16:18:53.529Z,0.82
2022-07-25T16:20:55.155Z,1.38
2022-07-25T16:22:57.823Z,1.08
2022-07-25T16:25:01.347Z,0.10
2022-07-25T16:27:06.105Z,1.30
2022-07-25T16:29:08.126Z,2.22
2022-07-25T16:31:10.196Z,0.35
2022-07-25T16:33:11.877Z,1.48
2022-07-25T16:35:13.484Z,1.33
2022-07-25T16:37:15.249Z,2.05
2022-07-25T16:39:16.915Z,4.32
2022-07-25T16:41:18.367Z,2.17
2022-07-25T16:43:19.906Z,3.08
2022-07-25T16:45:21.762Z,1.00
2022-07-25T16:47:23.363Z,2.25
2022-07-25T16:49:25.245Z,0.40
2022-07-25T16:51:28.036Z,0.43
2022-07-25T16:53:35.874Z,1.40
2022-07-25T16:55:44.745Z,1.58
2022-07-25T16:58:03.678Z,0.70
2022-07-25T17:00:12.329Z,1.65
2022-07-25T17:02:29.294Z,1.08
2022-07-25T17:04:35.298Z,1.10
2022-07-25T17:06:38.892Z,1.42
2022-07-25T17:08:41.972Z,0.93
2022-07-25T17:10:46.204Z,2.35
2022-07-25T17:12:55.238Z,3.00
2022-07-25T17:15:00.870Z,2.28
2022-07-25T17:17:03.688Z,0.68
2022-07-25T17:19:05.399Z,1.20
2022-07-25T17:21:07.376Z,1.85
2022-07-25T17:23:09.016Z,3.13
2022-07-25T17:25:10.708Z,0.45
2022-07-25T17:27:12.871Z,0.10
2022-07-25T17:29:14.394Z,1.23
2022-07-25T17:31:15.949Z,0.63
2022-07-25T17:33:17.847Z,1.98
2022-07-25T17:35:20.018Z,1.60
2022-07-25T17:37:22.751Z,0.13
2022-07-25T17:39:25.412Z,1.58
2022-07-25T17:41:26.954Z,0.75
2022-07-25T17:43:29.009Z,1.33
2022-07-25T17:45:30.652Z,1.10
2022-07-25T17:47:35.731Z,3.35
2022-07-25T17:49:37.251Z,0.77
2022-07-25T17:51:38.848Z,0.98
2022-07-25T17:53:40.342Z,6.28
2022-07-25T17:55:42.556Z,0.77
2022-07-25T17:57:46.471Z,2.78
2022-07-25T17:59:48.820Z,1.38
2022-07-25T18:01:50.444Z,0.60
2022-07-25T18:03:52.111Z,0.93
2022-07-25T18:05:53.786Z,7.10
2022-07-25T18:07:55.424Z,8.20
2022-07-25T18:09:57.507Z,4.20
2022-07-25T18:12:01.721Z,1.02
2022-07-25T18:14:03.294Z,1.73
2022-07-25T18:16:05.238Z,5.63
2022-07-25T18:18:08.914Z,2.58
2022-07-25T18:20:13.724Z,6.13
2022-07-25T18:22:15.196Z,2.78
2022-07-25T18:24:16.763Z,2.72
2022-07-25T18:26:18.491Z,1.85
2022-07-25T18:28:20.770Z,1.15
2022-07-25T18:30:27.229Z,2.28
2022-07-25T18:32:30.603Z,2.85
2022-07-25T18:34:32.964Z,1.30
2022-07-25T18:36:35.002Z,3.55
2022-07-25T18:38:36.570Z,4.63
2022-07-25T18:40:38.214Z,1.00
2022-07-25T18:42:40.205Z,3.50
2022-07-25T18:44:41.660Z,1.02
2022-07-25T18:46:45.693Z,7.72
2022-07-25T18:48:47.415Z,0.90
2022-07-25T18:50:48.946Z,4.28
2022-07-25T18:52:51.485Z,3.58
2022-07-25T18:54:52.982Z,3.83
2022-07-25T18:56:54.558Z,1.70
2022-07-25T18:58:56.323Z,1.58
2022-07-25T19:00:58.241Z,2.35
2022-07-25T19:02:59.783Z,4.07
2022-07-25T19:05:01.809Z,5.55
2022-07-25T19:07:03.791Z,3.50
2022-07-25T19:09:05.262Z,9.10
2022-07-25T19:11:07.101Z,1.25
2022-07-25T19:13:08.613Z,3.03
2022-07-25T19:15:10.247Z,2.88
2022-07-25T19:17:11.781Z,2.15
2022-07-25T19:19:13.225Z,1.80
2022-07-25T19:21:15.485Z,0.68
2022-07-25T19:23:17.020Z,1.08
2022-07-25T19:25:19.288Z,7.85
2022-07-25T19:27:21.767Z,3.85
2022-07-25T19:29:23.322Z,3.55
2022-07-25T19:31:25.316Z,1.27
2022-07-25T19:33:35.812Z,6.65
2022-07-25T19:35:38.012Z,2.53
2022-07-25T19:37:39.684Z,1.92
2022-07-25T19:39:41.147Z,3.33
2022-07-25T19:41:46.721Z,2.38
2022-07-25T19:43:49.030Z,6.50
2022-07-25T19:45:51.244Z,4.63
2022-07-25T19:47:53.092Z,2.50
2022-07-25T19:49:54.658Z,2.10
2022-07-25T19:51:56.129Z,3.05
2022-07-25T19:53:57.945Z,2.33
2022-07-25T19:56:00.207Z,1.80
2022-07-25T19:58:03.974Z,1.80
2022-07-25T20:00:09.266Z,0.50
2022-07-25T20:02:19.058Z,1.10
2022-07-25T20:04:24.439Z,0.80
2022-07-25T20:06:27.315Z,1.30
2022-07-25T20:08:31.455Z,1.27
2022-07-25T20:10:34.985Z,3.45
2022-07-25T20:12:39.956Z,2.40
2022-07-25T20:14:43.818Z,4.10
2022-07-25T20:16:48.664Z,2.50
2022-07-25T20:18:53.569Z,1.27
2022-07-25T20:20:56.416Z,1.92
2022-07-25T20:22:58.403Z,3.88
2022-07-25T20:25:03.734Z,1.85
2022-07-25T20:27:07.152Z,0.47
2022-07-25T20:29:09.333Z,2.92
2022-07-25T20:31:11.007Z,0.22
2022-07-25T20:33:12.704Z,2.53
2022-07-25T20:35:14.312Z,2.22
2022-07-25T20:37:15.985Z,0.88
2022-07-25T20:39:17.509Z,1.73
2022-07-25T20:41:19.498Z,1.23
2022-07-25T20:43:21.000Z,1.40
2022-07-25T20:45:22.707Z,0.30
2022-07-25T20:47:25.063Z,2.28
2022-07-25T20:49:26.652Z,0.75
2022-07-25T20:51:28.140Z,0.38
2022-07-25T20:53:30.496Z,1.88
2022-07-25T20:55:32.609Z,2.67
2022-07-25T20:57:34.258Z,1.75
2022-07-25T20:59:35.914Z,1.85
2022-07-25T21:01:38.162Z,0.68
2022-07-25T21:03:39.784Z,1.00
2022-07-25T21:05:43.198Z,0.40
2022-07-25T21:07:44.712Z,1.70
2022-07-25T21:09:47.667Z,2.72
2022-07-25T21:11:49.238Z,2.88
2022-07-25T21:13:50.813Z,1.67
2022-07-25T21:15:52.772Z,0.43
2022-07-25T21:17:54.255Z,0.52
2022-07-25T21:19:56.136Z,1.67
2022-07-25T21:21:57.631Z,1.55
2022-07-25T21:23:59.123Z,2.88
2022-07-25T21:26:00.792Z,0.52
2022-07-25T21:28:02.289Z,1.80
2022-07-25T21:30:04.953Z,1.27
2022-07-25T21:32:07.030Z,0.10
2022-07-25T21:34:08.628Z,0.98
2022-07-25T21:36:10.434Z,3.60
2022-07-25T21:38:12.043Z,1.63
2022-07-25T21:40:29.442Z,1.70
2022-07-25T21:42:31.024Z,1.13
2022-07-25T21:44:32.946Z,0.75
2022-07-25T21:46:34.511Z,2.30
2022-07-25T21:48:54.587Z,2.47
2022-07-25T21:50:56.078Z,0.95
2022-07-25T21:52:58.462Z,1.77
2022-07-25T21:55:00.869Z,1.00
2022-07-25T21:57:02.450Z,2.72
2022-07-25T21:59:04.182Z,0.28
2022-07-25T22:01:06.024Z,0.65
2022-07-25T22:03:07.653Z,2.83
2022-07-25T22:05:09.563Z,0.40
2022-07-25T22:07:11.138Z,3.60
2022-07-25T22:09:12.681Z,5.53
2022-07-25T22:11:36.235Z,1.52
2022-07-25T22:13:39.092Z,1.42
2022-07-25T22:15:44.532Z,2.45
2022-07-25T22:17:49.710Z,1.38
2022-07-25T22:19:51.705Z,4.53
2022-07-25T22:21:53.267Z,1.77
2022-07-25T22:23:54.706Z,0.32
2022-07-25T22:25:56.450Z,4.15
2022-07-25T22:27:58.132Z,0.90
2022-07-25T22:29:59.670Z,1.25
2022-07-25T22:32:01.360Z,0.45
2022-07-25T22:34:02.898Z,1.65
2022-07-25T22:36:05.066Z,0.73
2022-07-25T22:38:06.810Z,1.02
2022-07-25T22:40:08.448Z,2.55
2022-07-25T22:42:09.967Z,1.65
2022-07-25T22:44:11.456Z,3.22
2022-07-25T22:46:12.989Z,2.10
2022-07-25T22:48:17.294Z,1.58
2022-07-25T22:50:18.879Z,0.20
2022-07-25T22:52:20.341Z,1.90
2022-07-25T22:54:21.801Z,1.00
2022-07-25T22:56:23.427Z,0.22
2022-07-25T22:58:27.051Z,1.45
2022-07-25T23:00:31.818Z,3.50
2022-07-25T23:02:40.526Z,1.17
2022-07-25T23:04:49.344Z,1.60
2022-07-25T23:06:54.147Z,2.55
2022-07-25T23:08:59.299Z,1.13
2022-07-25T23:11:04.271Z,2.22
2022-07-25T23:13:10.674Z,0.60
2022-07-25T23:15:14.433Z,0.95
2022-07-25T23:17:19.951Z,1.48
2022-07-25T23:19:28.019Z,1.00
2022-07-25T23:21:34.628Z,1.83
2022-07-25T23:23:42.459Z,1.98
2022-07-25T23:25:45.081Z,1.77
2022-07-25T23:27:46.784Z,4.68
2022-07-25T23:29:48.356Z,2.42
2022-07-25T23:31:50.035Z,3.70
2022-07-25T23:33:51.722Z,4.35
2022-07-25T23:35:53.896Z,2.20
2022-07-25T23:37:55.413Z,2.55
2022-07-25T23:39:57.223Z,3.17
2022-07-25T23:41:59.414Z,0.98
2022-07-25T23:44:00.917Z,3.90
2022-07-25T23:46:03.256Z,0.77
2022-07-25T23:48:05.603Z,0.50
2022-07-25T23:50:07.970Z,2.55
2022-07-25T23:52:09.476Z,3.35
2022-07-25T23:54:11.038Z,2.55
2022-07-25T23:56:16.102Z,5.00
2022-07-25T23:58:20.220Z,0.90
